Time;durP1;ratioP1;P1;durP2;ratioP2;P2;SDS_P1;SDS_P2;PMS_P1;PMS_P2;Temp;Humidity;BMP_temperature;BMP_pressure;BME280_temperature;BME280_humidity;BME280_pressure;Samples;Min_cycle;Max_cycle;Signal;HPM_P1;HPM_P2
2022/12/16 00:02:17;;;;;;;38.55;18.63;;;;;;;;;;5095269;28;20123;-76
2022/12/16 00:05:03;;;;;;;35.25;18.15;;;;;;;;;;5095782;28;20085;-76
2022/12/16 00:07:49;;;;;;;39.70;19.52;;;;;;;;;;5095153;28;20027;-75
2022/12/16 00:10:51;;;;;;;43.03;20.73;;;;;;;;;;5094775;28;20388;-75
2022/12/16 00:13:39;;;;;;;46.58;21.25;;;;;;;;;;5094859;28;20016;-76
2022/12/16 00:16:24;;;;;;;50.35;22.20;;;;;;;;;;5095560;28;20095;-76
2022/12/16 00:19:10;;;;;;;46.28;21.60;;;;;;;;;;5081119;28;20331;-77
2022/12/16 00:21:56;;;;;;;36.95;18.90;;;;;;;;;;5095495;28;20434;-76
2022/12/16 00:24:41;;;;;;;34.97;17.67;;;;;;;;;;5094494;28;20016;-76
2022/12/16 00:27:27;;;;;;;40.60;16.52;;;;;;;;;;5080558;28;20028;-76
2022/12/16 00:30:13;;;;;;;36.42;16.23;;;;;;;;;;5094411;28;20034;-75
2022/12/16 00:32:58;;;;;;;35.83;16.27;;;;;;;;;;5079849;28;20062;-75
2022/12/16 00:35:44;;;;;;;32.47;15.75;;;;;;;;;;5094560;28;20354;-75
2022/12/16 00:38:30;;;;;;;32.90;17.00;;;;;;;;;;5094206;28;20102;-76
2022/12/16 00:41:15;;;;;;;35.97;16.50;;;;;;;;;;5094092;28;20024;-75
2022/12/16 00:44:01;;;;;;;36.10;18.02;;;;;;;;;;5078361;28;20077;-75
2022/12/16 00:46:47;;;;;;;31.05;16.25;;;;;;;;;;5093642;28;20354;-76
2022/12/16 00:49:32;;;;;;;36.88;16.88;;;;;;;;;;5094519;28;20114;-75
2022/12/16 00:52:18;;;;;;;30.42;15.30;;;;;;;;;;5093555;28;20084;-75
2022/12/16 00:55:04;;;;;;;29.20;14.35;;;;;;;;;;5094566;28;20024;-75
2022/12/16 00:57:49;;;;;;;33.05;16.20;;;;;;;;;;5081150;28;20157;-74
2022/12/16 01:00:35;;;;;;;30.85;14.75;;;;;;;;;;5093395;28;20024;-75
2022/12/16 01:03:20;;;;;;;26.90;13.55;;;;;;;;;;5094569;28;20047;-75
2022/12/16 01:06:10;;;;;;;26.65;14.07;;;;;;;;;;5093782;28;20024;-75
2022/12/16 01:08:56;;;;;;;28.02;12.65;;;;;;;;;;5079911;28;20442;-75
2022/12/16 01:11:41;;;;;;;24.75;13.55;;;;;;;;;;5093480;28;20046;-75
2022/12/16 01:14:27;;;;;;;24.67;13.15;;;;;;;;;;5078579;28;20020;-74
2022/12/16 01:17:13;;;;;;;26.27;14.38;;;;;;;;;;5093699;28;20032;-75
2022/12/16 01:19:58;;;;;;;47.28;15.10;;;;;;;;;;5094099;28;20020;-74
2022/12/16 01:22:44;;;;;;;30.92;14.98;;;;;;;;;;5079353;28;20026;-76
2022/12/16 01:25:30;;;;;;;32.67;15.45;;;;;;;;;;5093732;28;20024;-76
2022/12/16 01:28:16;;;;;;;33.38;17.42;;;;;;;;;;5094072;28;20026;-76
2022/12/16 01:31:01;;;;;;;35.63;17.02;;;;;;;;;;5077984;28;20446;-76
2022/12/16 01:33:47;;;;;;;33.60;17.30;;;;;;;;;;5092341;28;20040;-76
2022/12/16 01:36:32;;;;;;;30.42;16.98;;;;;;;;;;5093261;28;20043;-77
2022/12/16 01:39:18;;;;;;;33.30;17.63;;;;;;;;;;5078436;28;20016;-76
2022/12/16 01:42:07;;;;;;;31.60;15.77;;;;;;;;;;5093183;28;20016;-76
2022/12/16 01:44:53;;;;;;;26.02;14.48;;;;;;;;;;5078379;28;20366;-75
2022/12/16 01:47:39;;;;;;;28.63;13.90;;;;;;;;;;5093547;28;20407;-75
2022/12/16 01:50:24;;;;;;;23.08;13.20;;;;;;;;;;5092835;28;20016;-76
2022/12/16 01:53:10;;;;;;;25.55;13.50;;;;;;;;;;5093095;28;20099;-75
2022/12/16 01:55:57;;;;;;;30.83;15.35;;;;;;;;;;5093232;28;20105;-76
2022/12/16 01:58:44;;;;;;;37.13;14.63;;;;;;;;;;5094290;28;20070;-76
2022/12/16 02:01:29;;;;;;;24.45;13.95;;;;;;;;;;5092773;28;20059;-75
2022/12/16 02:04:15;;;;;;;26.13;12.95;;;;;;;;;;5092555;28;20012;-74
2022/12/16 02:07:00;;;;;;;28.02;14.50;;;;;;;;;;5092806;28;20080;-75
2022/12/16 02:09:46;;;;;;;31.10;14.48;;;;;;;;;;5078677;28;20400;-75
2022/12/16 02:12:31;;;;;;;27.85;13.57;;;;;;;;;;5077743;28;20070;-75
2022/12/16 02:15:25;;;;;;;33.63;14.38;;;;;;;;;;5092594;28;20020;-75
2022/12/16 02:18:11;;;;;;;28.05;14.65;;;;;;;;;;5079714;28;20016;-75
2022/12/16 02:21:14;;;;;;;33.10;15.70;;;;;;;;;;5078411;28;20008;-76
2022/12/16 02:24:19;;;;;;;33.97;16.00;;;;;;;;;;5093018;28;20016;-77
2022/12/16 02:27:19;;;;;;;28.90;14.95;;;;;;;;;;5093570;28;20382;-75
2022/12/16 02:30:05;;;;;;;28.98;15.55;;;;;;;;;;5077629;28;20123;-75
2022/12/16 02:33:17;;;;;;;33.92;15.82;;;;;;;;;;5079175;28;20518;-75
2022/12/16 02:36:12;;;;;;;29.17;15.38;;;;;;;;;;5054684;28;20063;-75
2022/12/16 02:38:57;;;;;;;31.92;15.30;;;;;;;;;;5092832;28;20027;-76
2022/12/16 02:41:52;;;;;;;35.03;16.33;;;;;;;;;;5092623;28;20016;-75
2022/12/16 02:44:44;;;;;;;35.60;16.55;;;;;;;;;;5079623;28;20025;-74
2022/12/16 02:47:30;;;;;;;38.00;17.20;;;;;;;;;;5077475;28;20454;-75
2022/12/16 02:50:19;;;;;;;34.08;15.65;;;;;;;;;;5092970;28;20031;-75
2022/12/16 02:53:07;;;;;;;35.53;17.10;;;;;;;;;;5078775;28;20023;-76
2022/12/16 02:56:11;;;;;;;29.52;15.18;;;;;;;;;;5112268;28;20008;-74
2022/12/16 02:59:26;;;;;;;33.22;15.43;;;;;;;;;;5086103;28;20254;-74
2022/12/16 03:02:21;;;;;;;47.72;17.35;;;;;;;;;;5021591;28;20117;-75
2022/12/16 03:05:25;;;;;;;36.88;15.52;;;;;;;;;;5072894;28;20024;-75
2022/12/16 03:08:13;;;;;;;42.65;16.75;;;;;;;;;;5075700;28;20043;-75
2022/12/16 03:11:00;;;;;;;40.88;18.02;;;;;;;;;;5076641;28;20095;-76
2022/12/16 03:13:48;;;;;;;30.77;16.33;;;;;;;;;;5076248;28;20052;-75
2022/12/16 03:16:34;;;;;;;33.58;16.17;;;;;;;;;;5061162;28;20097;-76
2022/12/16 03:19:20;;;;;;;32.92;15.90;;;;;;;;;;5076962;28;20498;-76
2022/12/16 03:22:15;;;;;;;46.03;16.10;;;;;;;;;;5076161;28;20055;-75
2022/12/16 03:25:01;;;;;;;28.20;15.07;;;;;;;;;;5075272;28;20346;-75
2022/12/16 03:27:55;;;;;;;30.30;15.57;;;;;;;;;;5076112;28;20111;-75
2022/12/16 03:30:43;;;;;;;34.78;16.85;;;;;;;;;;5075901;28;20021;-76
2022/12/16 03:33:37;;;;;;;40.58;17.33;;;;;;;;;;5061091;28;20016;-76
2022/12/16 03:36:25;;;;;;;32.40;15.15;;;;;;;;;;5061257;28;20028;-76
2022/12/16 03:39:11;;;;;;;45.05;17.65;;;;;;;;;;5076019;28;20017;-75
2022/12/16 03:41:57;;;;;;;31.73;16.65;;;;;;;;;;5075633;28;20032;-76
2022/12/16 03:44:43;;;;;;;32.50;17.35;;;;;;;;;;5076392;28;20021;-75
2022/12/16 03:47:29;;;;;;;36.13;16.77;;;;;;;;;;5076130;28;20051;-75
2022/12/16 03:50:16;;;;;;;33.72;17.73;;;;;;;;;;5075211;28;20405;-75
2022/12/16 03:53:02;;;;;;;37.10;18.17;;;;;;;;;;5061078;28;20025;-75
2022/12/16 03:55:48;;;;;;;38.42;17.17;;;;;;;;;;5076064;28;20050;-75
2022/12/16 03:58:34;;;;;;;40.90;17.75;;;;;;;;;;5074975;28;20104;-75
2022/12/16 04:01:19;;;;;;;34.20;16.40;;;;;;;;;;5083224;28;20044;-76
2022/12/16 04:04:05;;;;;;;46.35;17.83;;;;;;;;;;5095291;28;20450;-75
2022/12/16 04:07:18;;;;;;;36.25;17.50;;;;;;;;;;5096296;28;20020;-75
2022/12/16 04:09:56;;;;;;;43.08;15.75;;;;;;;;;;5114007;28;20098;-75
2022/12/16 04:25:01;;;;;;;38.58;17.10;;;;;;;;;;5094701;28;20021;-76
2022/12/16 04:27:46;;;;;;;51.85;18.48;;;;;;;;;;5095310;28;20034;-76
2022/12/16 04:30:35;;;;;;;42.67;18.02;;;;;;;;;;5080668;28;20062;-76
